Motion Scan — PCNB — position and weather

sailwx.info

Track history (hours):
 
Tides and Currents Weather Stations Pressure Air Temp Water Temp Dewpoint Dewpoint Depression Visibility Wind Speed Wind Dir Waves Ship Positions

Motion Scan

Last reported at 2014-Aug-16 19:10 UTC. Time now 2014-Aug-22 13:48 UTC.
Position N 50°26' W 000°23'.

Length 116 m; draft 5.5 m.

Type: Cargo ship. MMSI: 245523000.

Date/timePositionNaut miles runAvg speedWind from/ knotsBaromVisibWave heightAir tempDewpointWater temp
2014-Aug-16 19:10N 50°26' W 000°23'1615.0
2014-Aug-16 18:06N 50°31' E 000°01'814.6
2014-Aug-16 17:33N 50°33' E 000°13'1414.2
2014-Aug-16 16:33N 50°38' E 000°34'1313.4
2014-Aug-16 15:33N 50°45' E 000°51'1312.8
2014-Aug-16 14:33N 50°54' E 001°07'1313.2
2014-Aug-16 13:33N 51°02' E 001°23'1616.0
2014-Aug-16 12:34N 51°12' E 001°43'1716.8
2014-Aug-16 11:34N 51°27' E 001°56'1615.8
2014-Aug-16 10:33N 51°38' E 002°14'5513.0
2014-Aug-16 06:21N 52°04' E 003°32'1012.8
2014-Aug-16 05:34N 52°03' E 003°48'1111.4
2014-Aug-16 04:33N 51°59' E 004°05'3 2.7
2014-Aug-16 03:32N 51°57' E 004°09'0 0.0
2014-Aug-16 02:32N 51°57' E 004°09'0 0.0
2014-Aug-16 01:32N 51°57' E 004°09'0 0.0
2014-Aug-16 00:32N 51°57' E 004°09'0 0.0
2014-Aug-15 23:26N 51°57' E 004°09'0 0.0
2014-Aug-15 22:32N 51°57' E 004°09'0 0.0
2014-Aug-15 21:32N 51°57' E 004°09'0 0.0
2014-Aug-15 20:29N 51°57' E 004°09'0 0.0
2014-Aug-15 19:32N 51°57' E 004°09'2 1.7
2014-Aug-15 18:34N 51°58' E 004°07'8 7.7
2014-Aug-15 17:34N 51°54' E 004°17'5 4.8
2014-Aug-15 16:34N 51°54' E 004°25'0 0.0
2014-Aug-15 15:33N 51°54' E 004°25'0 0.0
2014-Aug-15 14:33N 51°54' E 004°25'0 0.0
2014-Aug-15 13:33N 51°54' E 004°25'0 0.0
2014-Aug-15 12:30N 51°54' E 004°25'0 0.0
2014-Aug-15 11:33N 51°54' E 004°25'0 0.0
2014-Aug-15 10:33N 51°54' E 004°25'0 0.0
2014-Aug-15 09:30N 51°54' E 004°25'0 0.0
2014-Aug-15 08:33N 51°54' E 004°25'0 0.0
2014-Aug-15 07:33N 51°54' E 004°25'0 0.0
2014-Aug-15 06:30N 51°54' E 004°25'0 0.0
2014-Aug-15 05:27N 51°54' E 004°25'0 0.0
2014-Aug-15 04:33N 51°54' E 004°25'1 0.8
2014-Aug-15 03:33N 51°54' E 004°24'1 1.0
2014-Aug-15 02:33N 51°53' E 004°25'0 0.0
2014-Aug-15 01:33N 51°53' E 004°25'0 0.0
2014-Aug-15 00:33N 51°53' E 004°25'0 0.0
2014-Aug-14 23:30N 51°53' E 004°25'0 0.0
2014-Aug-14 22:33N 51°53' E 004°25'0 0.0
2014-Aug-14 21:33N 51°53' E 004°25'0 0.0
2014-Aug-14 20:33N 51°53' E 004°25'0 0.0
2014-Aug-14 19:30N 51°53' E 004°25'0 0.0
2014-Aug-14 18:33N 51°53' E 004°25'0 0.0
2014-Aug-14 17:33N 51°53' E 004°25'0 0.0
2014-Aug-14 16:33N 51°53' E 004°25'0 0.0
2014-Aug-14 15:33N 51°53' E 004°25'0 0.0
2014-Aug-14 14:27N 51°53' E 004°25'0 0.0
2014-Aug-14 13:33N 51°53' E 004°25'0 0.0
2014-Aug-14 12:33N 51°53' E 004°25'0 0.0
2014-Aug-14 11:27N 51°53' E 004°25'0 0.0
2014-Aug-14 10:33N 51°53' E 004°25'0 0.0
2014-Aug-14 09:33N 51°53' E 004°25'0 0.0
2014-Aug-14 08:33N 51°53' E 004°25'0 0.0
2014-Aug-14 07:30N 51°53' E 004°25'0 0.0
2014-Aug-14 06:33N 51°53' E 004°25'0 0.0
2014-Aug-14 05:33N 51°53' E 004°25'0 0.0
2014-Aug-14 04:27N 51°53' E 004°25'0 0.0
2014-Aug-14 03:33N 51°53' E 004°25'0 0.0
2014-Aug-14 02:33N 51°53' E 004°25'0 0.0
2014-Aug-14 01:33N 51°53' E 004°25'0 0.0
2014-Aug-14 00:33N 51°53' E 004°25'0 0.0
2014-Aug-13 23:33N 51°53' E 004°25'0 0.0
2014-Aug-13 22:33N 51°53' E 004°25'0 0.0
2014-Aug-13 21:33N 51°53' E 004°25'0 0.0
2014-Aug-13 20:33N 51°53' E 004°25'0 0.0
2014-Aug-13 19:33N 51°53' E 004°25'0 0.0
2014-Aug-13 18:33N 51°53' E 004°25'0 0.0
2014-Aug-13 17:33N 51°53' E 004°25'0 0.0
2014-Aug-13 16:30N 51°53' E 004°25'0 0.0
2014-Aug-13 15:33N 51°53' E 004°25'0 0.0
2014-Aug-13 14:33N 51°53' E 004°25'0 0.0
2014-Aug-13 13:33N 51°53' E 004°25'0 0.0
2014-Aug-13 12:33N 51°53' E 004°25'0 0.0
2014-Aug-13 11:33N 51°53' E 004°25'0 0.0
2014-Aug-13 10:33N 51°53' E 004°25'0 0.0
2014-Aug-13 09:24N 51°53' E 004°25'0 0.0
2014-Aug-13 08:33N 51°53' E 004°25'0 0.0
2014-Aug-13 07:27N 51°53' E 004°25'0 0.0
2014-Aug-13 06:33N 51°53' E 004°25'0 0.0
2014-Aug-13 05:33N 51°53' E 004°25'0 0.0
2014-Aug-13 04:33N 51°53' E 004°25'0 0.0
2014-Aug-13 03:33N 51°53' E 004°25'0 0.0
2014-Aug-13 02:33N 51°53' E 004°25'0 0.0
2014-Aug-13 01:33N 51°53' E 004°25'0 0.0
2014-Aug-13 00:33N 51°53' E 004°25'0 0.0
2014-Aug-12 23:33N 51°53' E 004°25'0 0.0
2014-Aug-12 22:33N 51°53' E 004°25'0 0.0
2014-Aug-12 21:30N 51°53' E 004°25'0 0.0
2014-Aug-12 20:33N 51°53' E 004°25'0 0.0
2014-Aug-12 19:33N 51°53' E 004°25'0 0.0
2014-Aug-12 18:33N 51°53' E 004°25'0 0.0
2014-Aug-12 17:30N 51°53' E 004°25'0 0.0
2014-Aug-12 16:27N 51°53' E 004°25'0 0.0
2014-Aug-12 15:33N 51°53' E 004°25'0 0.0
2014-Aug-12 14:30N 51°53' E 004°25'0 0.0
2014-Aug-12 13:33N 51°53' E 004°25'0 0.0
2014-Aug-12 12:27N 51°53' E 004°25'0 0.0
2014-Aug-12 11:33N 51°53' E 004°25'0 0.0
2014-Aug-12 10:33N 51°53' E 004°25'0 0.0
2014-Aug-12 09:33N 51°53' E 004°25'0 0.0
2014-Aug-12 08:33N 51°53' E 004°25'0 0.0
2014-Aug-12 07:33N 51°53' E 004°25'0 0.0
2014-Aug-12 06:33N 51°53' E 004°25'0 0.0
2014-Aug-12 05:30N 51°53' E 004°25'0 0.0
2014-Aug-12 04:33N 51°53' E 004°25'0 0.0
2014-Aug-12 03:33N 51°53' E 004°25'0 0.0
2014-Aug-12 02:33N 51°53' E 004°25'0 0.0
2014-Aug-12 01:33N 51°53' E 004°25'0 0.1
2014-Aug-12 00:33N 51°53' E 004°25'3 3.2
2014-Aug-11 23:33N 51°52' E 004°20'8 8.1
2014-Aug-11 22:34N 51°50' E 004°33'4 3.7
2014-Aug-11 21:34N 51°48' E 004°38'0 0.0
2014-Aug-11 20:34N 51°48' E 004°38'0 0.0
2014-Aug-11 19:34N 51°48' E 004°38'0 0.0
2014-Aug-11 18:34N 51°48' E 004°38'0 0.0
2014-Aug-11 17:33N 51°48' E 004°38'0 0.0
2014-Aug-11 16:33N 51°48' E 004°38'0 0.0
2014-Aug-11 15:33N 51°48' E 004°38'0 0.0
2014-Aug-11 14:33N 51°48' E 004°38'0 0.0
2014-Aug-11 13:34N 51°48' E 004°38'0 0.0
2014-Aug-11 12:34N 51°48' E 004°38'0 0.0
2014-Aug-11 11:34N 51°48' E 004°38'0 0.0
2014-Aug-11 10:34N 51°48' E 004°38'0 0.1
2014-Aug-11 09:33N 51°48' E 004°38'2 2.0
2014-Aug-11 08:33N 51°48' E 004°35'8 8.3
2014-Aug-11 07:33N 51°51' E 004°22'8 8.3
2014-Aug-11 06:33N 51°56' E 004°12'9 9.1
2014-Aug-11 05:33N 51°60' E 003°59'1312.7
2014-Aug-11 04:33N 51°58' E 003°39'1813.7
2014-Aug-11 03:16N 51°53' E 003°11'1014.1
2014-Aug-11 02:32N 51°50' E 002°55'1414.1
2014-Aug-11 01:33N 51°44' E 002°35'1515.1
2014-Aug-11 00:33N 51°32' E 002°19'1514.7
2014-Aug-10 23:32N 51°19' E 002°07'1414.3
2014-Aug-10 22:34N 51°09' E 001°52'1515.0
2014-Aug-10 21:33N 50°59' E 001°34'3913.0
2014-Aug-10 18:33N 50°30' E 000°54'1313.0
2014-Aug-10 17:33N 50°26' E 000°34'1412.3
2014-Aug-10 16:26N 50°23' E 000°13'5411.1
2014-Aug-10 11:33N 50°09' W 001°09'  
Track history (hours):
 
Tides and Currents Weather Stations Pressure Air Temp Water Temp Dewpoint Dewpoint Depression Visibility Wind Speed Wind Dir Waves Ship Positions

Motion Scan

Last reported at 2014-Aug-16 19:10 UTC. Time now 2014-Aug-22 13:48 UTC.
Position N 50°26' W 000°23'.

Length 116 m; draft 5.5 m.

Type: Cargo ship. MMSI: 245523000.

Date/timePositionNaut miles runAvg speedWind from/ knotsBaromVisibWave heightAir tempDewpointWater temp
2014-Aug-16 19:10N 50°26' W 000°23'1615.0
2014-Aug-16 18:06N 50°31' E 000°01'814.6
2014-Aug-16 17:33N 50°33' E 000°13'1414.2
2014-Aug-16 16:33N 50°38' E 000°34'1313.4
2014-Aug-16 15:33N 50°45' E 000°51'1312.8
2014-Aug-16 14:33N 50°54' E 001°07'1313.2
2014-Aug-16 13:33N 51°02' E 001°23'1616.0
2014-Aug-16 12:34N 51°12' E 001°43'1716.8
2014-Aug-16 11:34N 51°27' E 001°56'1615.8
2014-Aug-16 10:33N 51°38' E 002°14'5513.0
2014-Aug-16 06:21N 52°04' E 003°32'1012.8
2014-Aug-16 05:34N 52°03' E 003°48'1111.4
2014-Aug-16 04:33N 51°59' E 004°05'3 2.7
2014-Aug-16 03:32N 51°57' E 004°09'0 0.0
2014-Aug-16 02:32N 51°57' E 004°09'0 0.0
2014-Aug-16 01:32N 51°57' E 004°09'0 0.0
2014-Aug-16 00:32N 51°57' E 004°09'0 0.0
2014-Aug-15 23:26N 51°57' E 004°09'0 0.0
2014-Aug-15 22:32N 51°57' E 004°09'0 0.0
2014-Aug-15 21:32N 51°57' E 004°09'0 0.0
2014-Aug-15 20:29N 51°57' E 004°09'0 0.0
2014-Aug-15 19:32N 51°57' E 004°09'2 1.7
2014-Aug-15 18:34N 51°58' E 004°07'8 7.7
2014-Aug-15 17:34N 51°54' E 004°17'5 4.8
2014-Aug-15 16:34N 51°54' E 004°25'0 0.0
2014-Aug-15 15:33N 51°54' E 004°25'0 0.0
2014-Aug-15 14:33N 51°54' E 004°25'0 0.0
2014-Aug-15 13:33N 51°54' E 004°25'0 0.0
2014-Aug-15 12:30N 51°54' E 004°25'0 0.0
2014-Aug-15 11:33N 51°54' E 004°25'0 0.0
2014-Aug-15 10:33N 51°54' E 004°25'0 0.0
2014-Aug-15 09:30N 51°54' E 004°25'0 0.0
2014-Aug-15 08:33N 51°54' E 004°25'0 0.0
2014-Aug-15 07:33N 51°54' E 004°25'0 0.0
2014-Aug-15 06:30N 51°54' E 004°25'0 0.0
2014-Aug-15 05:27N 51°54' E 004°25'0 0.0
2014-Aug-15 04:33N 51°54' E 004°25'1 0.8
2014-Aug-15 03:33N 51°54' E 004°24'1 1.0
2014-Aug-15 02:33N 51°53' E 004°25'0 0.0
2014-Aug-15 01:33N 51°53' E 004°25'0 0.0
2014-Aug-15 00:33N 51°53' E 004°25'0 0.0
2014-Aug-14 23:30N 51°53' E 004°25'0 0.0
2014-Aug-14 22:33N 51°53' E 004°25'0 0.0
2014-Aug-14 21:33N 51°53' E 004°25'0 0.0
2014-Aug-14 20:33N 51°53' E 004°25'0 0.0
2014-Aug-14 19:30N 51°53' E 004°25'0 0.0
2014-Aug-14 18:33N 51°53' E 004°25'0 0.0
2014-Aug-14 17:33N 51°53' E 004°25'0 0.0
2014-Aug-14 16:33N 51°53' E 004°25'0 0.0
2014-Aug-14 15:33N 51°53' E 004°25'0 0.0
2014-Aug-14 14:27N 51°53' E 004°25'0 0.0
2014-Aug-14 13:33N 51°53' E 004°25'0 0.0
2014-Aug-14 12:33N 51°53' E 004°25'0 0.0
2014-Aug-14 11:27N 51°53' E 004°25'0 0.0
2014-Aug-14 10:33N 51°53' E 004°25'0 0.0
2014-Aug-14 09:33N 51°53' E 004°25'0 0.0
2014-Aug-14 08:33N 51°53' E 004°25'0 0.0
2014-Aug-14 07:30N 51°53' E 004°25'0 0.0
2014-Aug-14 06:33N 51°53' E 004°25'0 0.0
2014-Aug-14 05:33N 51°53' E 004°25'0 0.0
2014-Aug-14 04:27N 51°53' E 004°25'0 0.0
2014-Aug-14 03:33N 51°53' E 004°25'0 0.0
2014-Aug-14 02:33N 51°53' E 004°25'0 0.0
2014-Aug-14 01:33N 51°53' E 004°25'0 0.0
2014-Aug-14 00:33N 51°53' E 004°25'0 0.0
2014-Aug-13 23:33N 51°53' E 004°25'0 0.0
2014-Aug-13 22:33N 51°53' E 004°25'0 0.0
2014-Aug-13 21:33N 51°53' E 004°25'0 0.0
2014-Aug-13 20:33N 51°53' E 004°25'0 0.0
2014-Aug-13 19:33N 51°53' E 004°25'0 0.0
2014-Aug-13 18:33N 51°53' E 004°25'0 0.0
2014-Aug-13 17:33N 51°53' E 004°25'0 0.0
2014-Aug-13 16:30N 51°53' E 004°25'0 0.0
2014-Aug-13 15:33N 51°53' E 004°25'0 0.0
2014-Aug-13 14:33N 51°53' E 004°25'0 0.0
2014-Aug-13 13:33N 51°53' E 004°25'0 0.0
2014-Aug-13 12:33N 51°53' E 004°25'0 0.0
2014-Aug-13 11:33N 51°53' E 004°25'0 0.0
2014-Aug-13 10:33N 51°53' E 004°25'0 0.0
2014-Aug-13 09:24N 51°53' E 004°25'0 0.0
2014-Aug-13 08:33N 51°53' E 004°25'0 0.0
2014-Aug-13 07:27N 51°53' E 004°25'0 0.0
2014-Aug-13 06:33N 51°53' E 004°25'0 0.0
2014-Aug-13 05:33N 51°53' E 004°25'0 0.0
2014-Aug-13 04:33N 51°53' E 004°25'0 0.0
2014-Aug-13 03:33N 51°53' E 004°25'0 0.0
2014-Aug-13 02:33N 51°53' E 004°25'0 0.0
2014-Aug-13 01:33N 51°53' E 004°25'0 0.0
2014-Aug-13 00:33N 51°53' E 004°25'0 0.0
2014-Aug-12 23:33N 51°53' E 004°25'0 0.0
2014-Aug-12 22:33N 51°53' E 004°25'0 0.0
2014-Aug-12 21:30N 51°53' E 004°25'0 0.0
2014-Aug-12 20:33N 51°53' E 004°25'0 0.0
2014-Aug-12 19:33N 51°53' E 004°25'0 0.0
2014-Aug-12 18:33N 51°53' E 004°25'0 0.0
2014-Aug-12 17:30N 51°53' E 004°25'0 0.0
2014-Aug-12 16:27N 51°53' E 004°25'0 0.0
2014-Aug-12 15:33N 51°53' E 004°25'0 0.0
2014-Aug-12 14:30N 51°53' E 004°25'0 0.0
2014-Aug-12 13:33N 51°53' E 004°25'0 0.0
2014-Aug-12 12:27N 51°53' E 004°25'0 0.0
2014-Aug-12 11:33N 51°53' E 004°25'0 0.0
2014-Aug-12 10:33N 51°53' E 004°25'0 0.0
2014-Aug-12 09:33N 51°53' E 004°25'0 0.0
2014-Aug-12 08:33N 51°53' E 004°25'0 0.0
2014-Aug-12 07:33N 51°53' E 004°25'0 0.0
2014-Aug-12 06:33N 51°53' E 004°25'0 0.0
2014-Aug-12 05:30N 51°53' E 004°25'0 0.0
2014-Aug-12 04:33N 51°53' E 004°25'0 0.0
2014-Aug-12 03:33N 51°53' E 004°25'0 0.0
2014-Aug-12 02:33N 51°53' E 004°25'0 0.0
2014-Aug-12 01:33N 51°53' E 004°25'0 0.1
2014-Aug-12 00:33N 51°53' E 004°25'3 3.2
2014-Aug-11 23:33N 51°52' E 004°20'8 8.1
2014-Aug-11 22:34N 51°50' E 004°33'4 3.7
2014-Aug-11 21:34N 51°48' E 004°38'0 0.0
2014-Aug-11 20:34N 51°48' E 004°38'0 0.0
2014-Aug-11 19:34N 51°48' E 004°38'0 0.0
2014-Aug-11 18:34N 51°48' E 004°38'0 0.0
2014-Aug-11 17:33N 51°48' E 004°38'0 0.0
2014-Aug-11 16:33N 51°48' E 004°38'0 0.0
2014-Aug-11 15:33N 51°48' E 004°38'0 0.0
2014-Aug-11 14:33N 51°48' E 004°38'0 0.0
2014-Aug-11 13:34N 51°48' E 004°38'0 0.0
2014-Aug-11 12:34N 51°48' E 004°38'0 0.0
2014-Aug-11 11:34N 51°48' E 004°38'0 0.0
2014-Aug-11 10:34N 51°48' E 004°38'0 0.1
2014-Aug-11 09:33N 51°48' E 004°38'2 2.0
2014-Aug-11 08:33N 51°48' E 004°35'8 8.3
2014-Aug-11 07:33N 51°51' E 004°22'8 8.3
2014-Aug-11 06:33N 51°56' E 004°12'9 9.1
2014-Aug-11 05:33N 51°60' E 003°59'1312.7
2014-Aug-11 04:33N 51°58' E 003°39'1813.7
2014-Aug-11 03:16N 51°53' E 003°11'1014.1
2014-Aug-11 02:32N 51°50' E 002°55'1414.1
2014-Aug-11 01:33N 51°44' E 002°35'1515.1
2014-Aug-11 00:33N 51°32' E 002°19'1514.7
2014-Aug-10 23:32N 51°19' E 002°07'1414.3
2014-Aug-10 22:34N 51°09' E 001°52'1515.0
2014-Aug-10 21:33N 50°59' E 001°34'3913.0
2014-Aug-10 18:33N 50°30' E 000°54'1313.0
2014-Aug-10 17:33N 50°26' E 000°34'1412.3
2014-Aug-10 16:26N 50°23' E 000°13'5411.1
2014-Aug-10 11:33N 50°09' W 001°09'  

Dump ship's entire track history